createdAt,value
2022-08-26T00:01:17.456Z,25.02
2022-08-26T00:03:54.783Z,28.17
2022-08-26T00:08:57.709Z,29.97
2022-08-26T00:11:28.838Z,23.50
2022-08-26T00:14:00.701Z,20.52
2022-08-26T00:16:32.256Z,24.98
2022-08-26T00:19:02.759Z,25.63
2022-08-26T00:24:07.416Z,22.23
2022-08-26T00:26:37.773Z,18.67
2022-08-26T00:29:08.005Z,24.65
2022-08-26T00:31:39.899Z,26.92
2022-08-26T00:36:42.624Z,20.77
2022-08-26T00:39:15.964Z,27.02
2022-08-26T00:41:46.913Z,20.15
2022-08-26T00:44:17.132Z,21.30
2022-08-26T00:46:53.939Z,23.90
2022-08-26T00:49:34.196Z,16.33
2022-08-26T00:52:09.685Z,22.58
2022-08-26T00:54:47.365Z,23.60
2022-08-26T00:57:21.031Z,18.95
2022-08-26T00:59:58.298Z,18.30
2022-08-26T01:02:28.897Z,22.15
2022-08-26T01:05:04.281Z,24.35
2022-08-26T01:07:39.244Z,27.75
2022-08-26T01:10:17.229Z,17.48
2022-08-26T01:12:52.813Z,22.13
2022-08-26T01:15:29.176Z,16.15
2022-08-26T01:18:04.136Z,20.83
2022-08-26T01:20:43.254Z,21.63
2022-08-26T01:23:16.425Z,26.63
2022-08-26T01:25:51.903Z,24.80
2022-08-26T01:28:26.762Z,19.95
2022-08-26T01:30:59.785Z,20.38
2022-08-26T01:33:47.856Z,22.98
2022-08-26T01:36:20.778Z,21.33
2022-08-26T01:38:53.608Z,19.65
2022-08-26T01:41:27.443Z,21.20
2022-08-26T01:44:00.394Z,24.77
2022-08-26T01:46:33.545Z,19.17
2022-08-26T01:49:07.983Z,20.60
2022-08-26T01:51:39.691Z,23.23
2022-08-26T01:54:14.268Z,20.67
2022-08-26T01:56:44.627Z,17.92
2022-08-26T01:59:18.128Z,22.67
2022-08-26T02:01:50.342Z,27.98
2022-08-26T02:04:29.126Z,27.75
2022-08-26T02:07:00.340Z,21.30
2022-08-26T02:09:33.464Z,21.67
2022-08-26T02:12:14.882Z,21.77
2022-08-26T02:14:52.029Z,23.27
2022-08-26T02:17:27.689Z,23.25
2022-08-26T02:19:59.463Z,26.73
2022-08-26T02:22:29.768Z,21.50
2022-08-26T02:25:12.007Z,23.20
2022-08-26T02:27:43.564Z,26.15
2022-08-26T02:30:18.617Z,21.55
2022-08-26T02:32:49.779Z,28.95
2022-08-26T02:35:23.417Z,25.10
2022-08-26T02:37:56.018Z,27.90
2022-08-26T02:40:34.978Z,24.48
2022-08-26T02:43:08.606Z,19.60
2022-08-26T02:45:40.322Z,24.67
2022-08-26T02:48:16.894Z,21.45
2022-08-26T02:50:50.050Z,23.40
2022-08-26T02:53:25.004Z,26.02
2022-08-26T02:55:58.524Z,19.42
2022-08-26T02:58:30.072Z,21.45
2022-08-26T03:01:00.374Z,21.55
2022-08-26T03:03:32.076Z,25.58
2022-08-26T03:06:02.961Z,20.17
2022-08-26T03:08:33.488Z,27.75
2022-08-26T03:13:36.698Z,20.80
2022-08-26T03:16:08.650Z,24.45
2022-08-26T03:18:39.922Z,23.10
2022-08-26T03:21:11.661Z,23.48
2022-08-26T03:23:43.656Z,20.25
2022-08-26T03:26:18.862Z,24.70
2022-08-26T03:29:01.216Z,20.95
2022-08-26T03:31:33.069Z,22.58
2022-08-26T03:34:03.649Z,20.75
2022-08-26T03:36:35.029Z,24.00
2022-08-26T03:39:05.718Z,20.98
2022-08-26T03:41:39.956Z,23.75
2022-08-26T03:44:11.726Z,24.80
2022-08-26T03:49:14.421Z,24.70
2022-08-26T03:51:45.400Z,25.17
2022-08-26T03:54:15.889Z,28.25
2022-08-26T03:56:48.689Z,24.35
2022-08-26T03:59:18.907Z,22.45
2022-08-26T04:01:49.100Z,30.63
2022-08-26T04:04:22.570Z,31.40
2022-08-26T04:06:53.208Z,24.83
2022-08-26T04:09:24.284Z,24.20
2022-08-26T04:11:59.642Z,25.90
2022-08-26T04:14:31.947Z,26.33
2022-08-26T04:17:04.566Z,25.70
2022-08-26T04:19:36.594Z,28.00
2022-08-26T04:24:39.584Z,32.20
2022-08-26T04:27:12.581Z,24.90
2022-08-26T04:29:43.812Z,31.55
2022-08-26T04:32:14.016Z,29.33
2022-08-26T04:34:44.976Z,32.92
2022-08-26T04:37:16.599Z,28.70
2022-08-26T04:39:47.919Z,28.52
2022-08-26T04:42:26.258Z,25.67
2022-08-26T04:44:56.707Z,31.15
2022-08-26T04:47:31.720Z,24.10
2022-08-26T04:50:02.521Z,31.55
2022-08-26T04:52:32.755Z,30.52
2022-08-26T04:55:02.960Z,32.83
2022-08-26T04:57:39.005Z,28.98
2022-08-26T05:00:13.463Z,27.20
2022-08-26T05:02:43.879Z,32.53
2022-08-26T05:05:14.229Z,28.40
2022-08-26T05:07:44.762Z,28.75
2022-08-26T05:12:47.654Z,25.70
2022-08-26T05:15:18.003Z,27.67
2022-08-26T05:17:50.507Z,22.67
2022-08-26T05:20:25.622Z,29.70
2022-08-26T05:22:56.502Z,28.08
2022-08-26T05:25:27.437Z,27.52
2022-08-26T05:30:32.945Z,27.13
2022-08-26T05:33:05.112Z,25.58
2022-08-26T05:35:36.294Z,25.13
2022-08-26T05:38:12.652Z,29.45
2022-08-26T05:40:47.319Z,26.80
2022-08-26T05:43:20.647Z,34.03
2022-08-26T05:45:53.222Z,30.55
2022-08-26T05:48:24.524Z,30.23
2022-08-26T05:50:56.338Z,33.85
2022-08-26T05:53:26.484Z,32.28
2022-08-26T05:55:58.526Z,33.30
2022-08-26T05:58:32.663Z,29.23
2022-08-26T06:01:05.642Z,30.10
2022-08-26T06:03:38.768Z,32.28
2022-08-26T06:06:12.293Z,28.95
2022-08-26T06:08:44.141Z,28.15
2022-08-26T06:11:19.323Z,27.45
2022-08-26T06:13:53.461Z,32.55
2022-08-26T06:16:26.404Z,26.75
2022-08-26T06:18:57.768Z,27.73
2022-08-26T06:21:31.114Z,28.98
2022-08-26T06:24:16.808Z,23.92
2022-08-26T06:26:53.108Z,32.70
2022-08-26T06:29:28.581Z,28.00
2022-08-26T06:32:00.351Z,24.40
2022-08-26T06:34:31.792Z,35.65
2022-08-26T06:37:06.326Z,33.42
2022-08-26T06:39:40.123Z,28.83
2022-08-26T06:42:11.934Z,29.83
2022-08-26T06:44:45.540Z,26.33
2022-08-26T06:47:15.926Z,25.52
2022-08-26T06:49:46.098Z,28.00
2022-08-26T06:52:21.193Z,24.58
2022-08-26T06:54:54.540Z,23.33
2022-08-26T06:59:57.221Z,25.13
2022-08-26T07:02:28.504Z,25.52
2022-08-26T07:04:59.118Z,23.73
2022-08-26T07:07:29.658Z,23.63
2022-08-26T07:09:59.882Z,21.48
2022-08-26T07:15:02.862Z,22.02
2022-08-26T07:17:33.020Z,23.45
2022-08-26T07:20:07.031Z,23.60
2022-08-26T07:22:38.454Z,22.33
2022-08-26T07:25:11.770Z,25.83
2022-08-26T07:27:42.450Z,20.60
2022-08-26T07:32:46.365Z,25.75
2022-08-26T07:40:16.800Z,24.50
2022-08-26T07:42:47.397Z,22.05
2022-08-26T07:45:21.599Z,19.23
2022-08-26T07:47:52.502Z,21.42
2022-08-26T07:50:49.223Z,21.50
2022-08-26T07:53:13.270Z,23.15
2022-08-26T07:55:45.320Z,26.63
2022-08-26T07:58:15.603Z,29.50
2022-08-26T08:00:49.024Z,22.23
2022-08-26T08:03:20.682Z,18.95
2022-08-26T08:05:51.086Z,19.00
2022-08-26T08:08:27.941Z,18.55
2022-08-26T08:10:59.939Z,19.23
2022-08-26T08:13:30.600Z,25.50
2022-08-26T08:16:05.107Z,21.55
2022-08-26T08:18:35.457Z,16.20
2022-08-26T08:21:21.426Z,20.50
2022-08-26T08:23:52.736Z,22.17
2022-08-26T08:26:23.648Z,22.52
2022-08-26T08:28:57.174Z,20.27
2022-08-26T08:34:23.267Z,21.50
2022-08-26T08:36:54.278Z,19.70
2022-08-26T08:39:25.086Z,23.65
2022-08-26T08:42:30.626Z,49.63
2022-08-26T08:45:07.949Z,16.73
2022-08-26T08:47:45.271Z,21.48
2022-08-26T08:50:26.290Z,16.30
2022-08-26T08:53:12.772Z,25.23
2022-08-26T08:56:09.741Z,16.65
2022-08-26T08:58:56.865Z,15.20
2022-08-26T09:01:53.909Z,25.15
2022-08-26T09:05:05.070Z,17.63
2022-08-26T09:07:41.221Z,17.30
2022-08-26T09:10:32.309Z,16.42
2022-08-26T09:13:04.690Z,14.95
2022-08-26T09:15:52.860Z,25.52
2022-08-26T09:18:42.767Z,16.05
2022-08-26T09:21:23.561Z,15.80
2022-08-26T09:23:57.192Z,16.20
2022-08-26T09:26:31.747Z,18.15
2022-08-26T09:29:04.923Z,15.82
2022-08-26T09:31:37.850Z,14.25
2022-08-26T09:34:17.861Z,15.45
2022-08-26T09:36:53.706Z,22.63
2022-08-26T09:39:37.839Z,23.80
2022-08-26T09:42:14.329Z,21.90
2022-08-26T09:44:59.565Z,20.48
2022-08-26T09:47:34.036Z,22.25
2022-08-26T09:50:12.426Z,20.08
2022-08-26T09:52:45.494Z,28.73
2022-08-26T09:55:23.157Z,23.67
2022-08-26T09:57:55.697Z,23.70
2022-08-26T10:00:34.017Z,19.23
2022-08-26T10:03:08.971Z,25.58
2022-08-26T10:05:44.944Z,19.60
2022-08-26T10:08:30.898Z,14.48
2022-08-26T10:11:04.638Z,15.27
2022-08-26T10:13:39.799Z,17.63
2022-08-26T10:16:20.834Z,23.17
2022-08-26T10:19:02.292Z,20.17
2022-08-26T10:21:41.895Z,21.08
2022-08-26T10:24:22.787Z,29.60
2022-08-26T10:27:04.323Z,19.80
2022-08-26T10:29:42.630Z,19.15
2022-08-26T10:32:20.902Z,17.63
2022-08-26T10:34:51.095Z,20.52
2022-08-26T10:37:26.855Z,22.15
2022-08-26T10:40:05.860Z,20.10
2022-08-26T10:42:40.825Z,22.23
2022-08-26T10:45:15.641Z,24.17
2022-08-26T10:47:53.378Z,18.48
2022-08-26T10:50:34.972Z,19.02
2022-08-26T10:53:17.435Z,25.27
2022-08-26T10:58:53.858Z,19.08
2022-08-26T11:01:51.066Z,17.30
2022-08-26T11:04:48.094Z,13.05
2022-08-26T11:07:43.202Z,13.50
2022-08-26T11:10:45.248Z,17.83
2022-08-26T11:13:17.935Z,13.18
2022-08-26T11:16:12.419Z,17.00
2022-08-26T11:18:51.339Z,12.95
2022-08-26T11:22:06.262Z,15.40
2022-08-26T11:25:13.627Z,17.42
2022-08-26T11:28:06.061Z,14.30
2022-08-26T11:30:58.344Z,14.32
2022-08-26T11:33:52.896Z,13.80
2022-08-26T11:36:59.830Z,13.20
2022-08-26T11:39:38.396Z,10.88
2022-08-26T11:42:24.447Z,15.10
2022-08-26T11:44:59.362Z,16.08
2022-08-26T11:47:35.730Z,10.98
2022-08-26T11:50:16.506Z,12.77
2022-08-26T11:55:25.387Z,9.45
2022-08-26T11:58:00.921Z,13.40
2022-08-26T12:00:36.175Z,12.80
2022-08-26T12:03:11.934Z,16.38
2022-08-26T12:05:50.130Z,15.98
2022-08-26T12:08:24.766Z,12.43
2022-08-26T12:11:07.097Z,12.52
2022-08-26T12:13:39.306Z,15.10
2022-08-26T12:16:10.269Z,13.93
2022-08-26T12:18:44.787Z,11.73
2022-08-26T12:21:18.846Z,14.48
2022-08-26T12:23:51.164Z,14.23
2022-08-26T12:26:29.513Z,12.50
2022-08-26T12:29:12.930Z,12.13
2022-08-26T12:31:54.747Z,15.07
2022-08-26T12:34:28.215Z,11.80
2022-08-26T12:37:00.882Z,12.68
2022-08-26T12:39:34.175Z,13.02
2022-08-26T12:42:08.554Z,12.55
2022-08-26T12:44:54.185Z,10.82
2022-08-26T12:47:43.030Z,13.75
2022-08-26T12:50:23.673Z,12.23
2022-08-26T12:53:02.814Z,14.57
2022-08-26T12:55:44.909Z,16.08
2022-08-26T12:58:25.635Z,14.95
2022-08-26T13:00:57.567Z,15.98
2022-08-26T13:03:45.641Z,13.35
2022-08-26T13:06:31.274Z,11.73
2022-08-26T13:09:06.081Z,13.80
2022-08-26T13:11:58.871Z,12.82
2022-08-26T13:14:29.217Z,20.02
2022-08-26T13:16:59.667Z,20.48
2022-08-26T13:19:29.859Z,20.77
2022-08-26T13:24:38.181Z,12.00
2022-08-26T13:27:15.512Z,12.60
2022-08-26T13:29:45.919Z,8.95
2022-08-26T13:32:18.097Z,9.45
2022-08-26T13:34:52.946Z,9.10
2022-08-26T13:37:35.285Z,15.40
2022-08-26T13:40:08.604Z,10.40
2022-08-26T13:42:43.007Z,22.90
2022-08-26T13:45:20.847Z,13.48
2022-08-26T13:47:51.133Z,15.45
2022-08-26T13:50:21.319Z,19.45
2022-08-26T13:55:24.133Z,11.48
2022-08-26T14:00:24.694Z,10.13
2022-08-26T14:02:54.962Z,11.60
2022-08-26T14:05:25.179Z,9.95
2022-08-26T14:07:58.426Z,13.50
2022-08-26T14:10:30.340Z,12.25
2022-08-26T14:13:00.559Z,12.40
2022-08-26T14:18:01.104Z,11.82
2022-08-26T14:23:14.579Z,12.57
2022-08-26T14:25:44.999Z,9.70
2022-08-26T14:30:47.382Z,11.93
2022-08-26T14:33:18.298Z,11.93
2022-08-26T14:35:49.006Z,12.13
2022-08-26T14:38:22.792Z,12.05
2022-08-26T14:40:56.087Z,13.52
2022-08-26T14:45:56.632Z,10.55
2022-08-26T14:48:26.808Z,10.80
2022-08-26T14:50:57.035Z,9.88
2022-08-26T14:53:42.257Z,10.85
2022-08-26T14:56:16.524Z,10.18
2022-08-26T14:58:47.106Z,9.45
2022-08-26T15:03:47.393Z,11.75
2022-08-26T15:06:19.669Z,16.55
2022-08-26T15:08:52.648Z,18.48
2022-08-26T15:11:22.949Z,31.63
2022-08-26T15:16:23.489Z,14.52
2022-08-26T15:18:54.304Z,11.40
2022-08-26T15:21:24.962Z,11.38
2022-08-26T15:23:58.175Z,14.13
2022-08-26T15:26:28.698Z,15.07
2022-08-26T15:29:04.713Z,10.52
2022-08-26T15:31:36.725Z,11.32
2022-08-26T15:34:14.617Z,11.50
2022-08-26T15:36:47.510Z,13.35
2022-08-26T15:39:21.082Z,12.90
2022-08-26T15:41:51.767Z,12.13
2022-08-26T15:44:22.048Z,12.90
2022-08-26T15:49:30.326Z,13.45
2022-08-26T15:52:04.217Z,10.05
2022-08-26T15:54:39.686Z,9.80
2022-08-26T15:57:13.621Z,7.95
2022-08-26T15:59:45.420Z,8.52
2022-08-26T16:02:15.736Z,11.35
2022-08-26T16:04:46.091Z,10.45
2022-08-26T16:09:52.097Z,14.32
2022-08-26T16:12:24.689Z,20.42
2022-08-26T16:14:54.919Z,12.23
2022-08-26T16:17:25.307Z,11.40
2022-08-26T16:19:56.384Z,11.48
2022-08-26T16:22:27.930Z,11.77
2022-08-26T16:25:02.348Z,9.80
2022-08-26T16:27:32.612Z,8.80
2022-08-26T16:32:32.835Z,9.02
2022-08-26T16:35:02.999Z,10.20
2022-08-26T16:37:35.467Z,12.45
2022-08-26T16:40:13.337Z,11.35
2022-08-26T16:42:43.616Z,9.63
2022-08-26T16:47:44.545Z,9.75
2022-08-26T16:50:15.133Z,9.80
2022-08-26T16:52:45.402Z,10.98
2022-08-26T16:55:19.460Z,13.13
2022-08-26T16:57:49.958Z,15.85
2022-08-26T17:00:24.642Z,13.30
2022-08-26T17:02:55.153Z,12.68
2022-08-26T17:05:26.625Z,11.57
2022-08-26T17:07:57.713Z,10.80
2022-08-26T17:10:32.430Z,8.48
2022-08-26T17:13:03.292Z,11.15
2022-08-26T17:15:33.592Z,10.00
2022-08-26T17:23:04.998Z,10.63
2022-08-26T17:25:37.896Z,10.23
2022-08-26T17:28:13.187Z,9.65
2022-08-26T17:30:44.491Z,12.20
2022-08-26T17:33:14.969Z,10.68
2022-08-26T17:35:49.228Z,10.27
2022-08-26T17:38:19.868Z,15.25
2022-08-26T17:40:53.655Z,11.82
2022-08-26T17:43:24.113Z,16.90
2022-08-26T17:48:25.092Z,9.85
2022-08-26T17:50:56.608Z,10.15
2022-08-26T17:53:29.240Z,12.32
2022-08-26T17:56:02.429Z,16.88
2022-08-26T17:58:32.812Z,10.90
2022-08-26T18:01:06.211Z,11.70
2022-08-26T18:03:37.286Z,13.13
2022-08-26T18:06:13.108Z,10.15
2022-08-26T18:08:45.125Z,12.52
2022-08-26T18:11:21.005Z,13.60
2022-08-26T18:13:51.604Z,11.32
2022-08-26T18:16:23.495Z,14.10
2022-08-26T18:18:54.492Z,14.02
2022-08-26T18:21:29.956Z,13.13
2022-08-26T18:24:00.391Z,13.30
2022-08-26T18:29:08.899Z,12.88
2022-08-26T18:31:39.311Z,17.35
2022-08-26T18:34:12.915Z,15.38
2022-08-26T18:36:43.894Z,15.43
2022-08-26T18:39:18.379Z,13.13
2022-08-26T18:41:55.314Z,12.05
2022-08-26T18:44:26.433Z,15.05
2022-08-26T18:46:56.929Z,11.50
2022-08-26T18:51:57.463Z,13.52
2022-08-26T18:54:27.956Z,10.63
2022-08-26T18:57:02.979Z,18.27
2022-08-26T18:59:33.337Z,11.90
2022-08-26T19:02:03.823Z,13.70
2022-08-26T19:04:34.596Z,11.80
2022-08-26T19:07:05.225Z,16.60
2022-08-26T19:09:36.076Z,11.88
2022-08-26T19:12:10.117Z,12.90
2022-08-26T19:14:40.544Z,15.40
2022-08-26T19:19:41.465Z,13.77
2022-08-26T19:22:12.067Z,12.68
2022-08-26T19:27:15.238Z,13.33
2022-08-26T19:29:45.601Z,13.85
2022-08-26T19:32:17.163Z,11.68
2022-08-26T19:34:47.600Z,14.27
2022-08-26T19:37:17.982Z,11.48
2022-08-26T19:39:49.019Z,12.10
2022-08-26T19:42:22.256Z,11.70
2022-08-26T19:45:04.973Z,11.40
2022-08-26T19:47:36.603Z,14.70
2022-08-26T19:50:11.644Z,14.38
2022-08-26T19:52:45.710Z,13.02
2022-08-26T19:55:18.698Z,12.32
2022-08-26T19:57:53.099Z,17.95
2022-08-26T20:00:27.428Z,14.27
2022-08-26T20:02:58.556Z,15.75
2022-08-26T20:05:30.162Z,18.05
2022-08-26T20:08:00.844Z,15.63
2022-08-26T20:10:31.835Z,17.40
2022-08-26T20:13:04.823Z,20.10
2022-08-26T20:15:39.116Z,16.60
2022-08-26T20:23:43.922Z,17.02
2022-08-26T20:26:14.958Z,15.88
2022-08-26T20:28:51.473Z,17.42
2022-08-26T20:31:22.223Z,16.38
2022-08-26T20:33:53.317Z,19.70
2022-08-26T20:36:27.079Z,18.25
2022-08-26T20:38:58.945Z,19.27
2022-08-26T20:41:30.995Z,51.10
2022-08-26T20:44:04.886Z,33.53
2022-08-26T20:46:36.528Z,18.05
2022-08-26T20:49:08.441Z,21.77
2022-08-26T20:51:40.186Z,23.13
2022-08-26T20:54:11.806Z,22.67
2022-08-26T20:56:42.327Z,19.13
2022-08-26T21:01:46.570Z,16.83
2022-08-26T21:04:21.996Z,19.73
2022-08-26T21:06:54.610Z,17.15
2022-08-26T21:09:27.451Z,19.85
2022-08-26T21:11:59.452Z,18.42
2022-08-26T21:17:04.130Z,21.52
2022-08-26T21:19:34.656Z,14.32
2022-08-26T21:24:36.155Z,15.70
2022-08-26T21:27:08.013Z,18.02
2022-08-26T21:29:42.075Z,21.02
2022-08-26T21:32:12.734Z,17.73
2022-08-26T21:34:46.161Z,18.48
2022-08-26T21:37:17.126Z,21.25
2022-08-26T21:39:47.771Z,20.25
2022-08-26T21:42:18.463Z,16.80
2022-08-26T21:44:53.523Z,16.33
2022-08-26T21:47:24.691Z,19.25
2022-08-26T21:49:55.935Z,14.68
2022-08-26T21:52:26.651Z,18.65
2022-08-26T21:55:01.336Z,17.10
2022-08-26T21:57:32.653Z,20.20
2022-08-26T22:00:08.380Z,16.10
2022-08-26T22:02:39.253Z,16.15
2022-08-26T22:05:10.778Z,14.18
2022-08-26T22:07:41.249Z,18.65
2022-08-26T22:12:42.140Z,22.02
2022-08-26T22:15:16.021Z,18.00
2022-08-26T22:17:46.280Z,19.65
2022-08-26T22:20:16.894Z,20.92
2022-08-26T22:22:47.159Z,19.52
2022-08-26T22:25:17.391Z,21.20
2022-08-26T22:27:47.698Z,18.15
2022-08-26T22:30:21.207Z,19.30
2022-08-26T22:32:51.512Z,18.20
2022-08-26T22:35:28.948Z,12.82
2022-08-26T22:38:01.013Z,9.43
2022-08-26T22:40:31.376Z,8.30
2022-08-26T22:43:02.329Z,7.78
2022-08-26T22:45:35.677Z,8.30
2022-08-26T22:48:07.208Z,8.27
2022-08-26T22:50:37.482Z,5.60
2022-08-26T22:53:07.770Z,7.03
2022-08-26T22:55:39.189Z,4.22
2022-08-26T22:58:09.718Z,5.43
2022-08-26T23:03:14.505Z,3.83
2022-08-26T23:08:17.543Z,5.82
2022-08-26T23:10:50.118Z,6.15
2022-08-26T23:13:21.267Z,5.95
2022-08-26T23:16:03.747Z,4.75
2022-08-26T23:18:34.211Z,6.35
2022-08-26T23:21:04.784Z,5.75
2022-08-26T23:26:06.503Z,5.70
2022-08-26T23:28:37.272Z,5.05
2022-08-26T23:33:52.872Z,6.47
2022-08-26T23:36:23.781Z,6.32
2022-08-26T23:38:54.444Z,4.55
2022-08-26T23:43:55.340Z,7.90
2022-08-26T23:46:28.131Z,5.18
2022-08-26T23:48:58.352Z,5.35
2022-08-26T23:51:41.080Z,6.15
2022-08-26T23:54:11.313Z,8.65
2022-08-26T23:56:42.206Z,6.78
2022-08-26T23:59:12.418Z,6.50
